YBCG/OOL METAR and TAF weather

Enter ICAO airport designator
Station Type Date Time Source
YBCG METAR 2021/09/16 21:30 UTC NOAA

YBCG 162130Z AUTO 23005KT 9999 // NCD 18/11 Q1023 RF00.0/000.0


Station Type Date Time Source
YBCG Decoded METAR 2021/09/16 21:30 UTC NOAA

Coolangatta Airport Aws, Australia (YBCG) 28-10S 153-30E 6M
Sep 16, 2021 - 05:30 PM EDT / 2021.09.16 2130 UTC
Wind: from the SW (230 degrees) at 6 MPH (5 KT):0
Visibility: greater than 7 mile(s):0
Temperature: 64 F (18 C)
Dew Point: 51 F (11 C)
Relative Humidity: 63%
Pressure (altimeter): 30.21 in. Hg (1023 hPa)
ob: YBCG 162130Z AUTO 23005KT 9999 // NCD 18/11 Q1023 RF00.0/000.0
cycle: 21

Station Type Date Time Source
YBCG TAF 2021/09/16 21:06 UTC NOAA

TAF
AMD TAF YBCG 162004Z 1621/1718 21008KT 9999 FEW035
FM170000 08008KT 9999 FEW045
FM170400 05010KT 9999 FEW040
FM171200 33005KT 9999 FEW030

Example: see airport list